Wild Peach Village, Texas
Current Conditions -  °F | °C
As of 7:53 AM on Saturday 25 Oct 2014 (Local Time) from KLBX Reporting Station
Haze Haze  
Wind Chill: 53°   Ceiling: Unl
Heat Index: 53°   Visibility: 6mi
Dew Point: 53°   Wind: 3mph
Humidity: 100%   Direction: 10°N
Pressure: 30.15"   Gusts: NA
Location:  28.9272°N, 95.5834°W
Report Text: KLBX 251253Z AUTO 01003KT 6SM BR CLR 12/12 A3015 RMK AO2 SLP209 T01170117
Loading
Personal Weather Stations






























Interactive Weather Map
Tropical Storm Tracking
New forecast layout! Learn more

10-Day Weather Forecast

Advertisements
Track Severe Weather on mobile